createdAt,value
2019-01-27T00:00:23.401Z,0
2019-01-27T00:00:55.370Z,0
2019-01-27T00:01:27.350Z,0
2019-01-27T00:01:59.328Z,0
2019-01-27T00:02:31.342Z,0
2019-01-27T00:03:03.371Z,0
2019-01-27T00:03:35.364Z,0
2019-01-27T00:04:07.335Z,0
2019-01-27T00:04:39.326Z,0
2019-01-27T00:05:11.311Z,0
2019-01-27T00:05:43.284Z,0
2019-01-27T00:06:15.269Z,0
2019-01-27T00:06:47.241Z,0
2019-01-27T00:07:19.233Z,0
2019-01-27T00:07:51.221Z,0
2019-01-27T00:08:23.223Z,0
2019-01-27T00:08:55.182Z,0
2019-01-27T00:09:27.157Z,0
2019-01-27T00:09:59.136Z,0
2019-01-27T00:10:31.138Z,0
2019-01-27T00:11:03.135Z,0
2019-01-27T00:11:35.105Z,0
2019-01-27T00:12:07.088Z,0
2019-01-27T00:12:39.050Z,0
2019-01-27T00:13:11.023Z,0
2019-01-27T00:13:43.030Z,0
2019-01-27T00:14:15.003Z,0
2019-01-27T00:14:46.980Z,0
2019-01-27T00:15:19.034Z,0
2019-01-27T00:15:51.039Z,0
2019-01-27T00:16:23.034Z,0
2019-01-27T00:16:55.077Z,0
2019-01-27T00:17:27.059Z,0
2019-01-27T00:17:59.052Z,0
2019-01-27T00:18:31.029Z,0
2019-01-27T00:19:03.001Z,0
2019-01-27T00:19:35.778Z,0
2019-01-27T00:20:07.756Z,0
2019-01-27T00:20:39.737Z,0
2019-01-27T00:21:11.706Z,0
2019-01-27T00:21:43.682Z,0
2019-01-27T00:22:15.687Z,0
2019-01-27T00:22:47.441Z,0
2019-01-27T00:23:19.465Z,0
2019-01-27T00:23:51.453Z,0
2019-01-27T00:24:23.419Z,0
2019-01-27T00:24:55.388Z,0
2019-01-27T00:25:27.357Z,0
2019-01-27T00:25:59.326Z,0
2019-01-27T00:26:31.304Z,0
2019-01-27T00:27:03.332Z,0
2019-01-27T00:27:35.309Z,0
2019-01-27T00:28:07.293Z,0
2019-01-27T00:28:39.280Z,0
2019-01-27T00:29:11.254Z,0
2019-01-27T00:29:43.223Z,0
2019-01-27T00:30:15.186Z,0
2019-01-27T00:30:47.166Z,0
2019-01-27T00:31:19.144Z,0
2019-01-27T00:31:51.123Z,0
2019-01-27T00:32:23.071Z,0
2019-01-27T00:32:55.048Z,0
2019-01-27T00:33:27.031Z,0
2019-01-27T00:33:58.997Z,0
2019-01-27T00:34:30.979Z,0
2019-01-27T00:35:02.961Z,0
2019-01-27T00:35:34.959Z,0
2019-01-27T00:36:06.942Z,0
2019-01-27T00:36:38.942Z,0
2019-01-27T00:37:10.952Z,0
2019-01-27T00:37:42.925Z,0
2019-01-27T00:38:14.892Z,0
2019-01-27T00:38:46.888Z,0
2019-01-27T00:39:18.865Z,0
2019-01-27T00:39:50.821Z,0
2019-01-27T00:40:22.794Z,0
2019-01-27T00:40:54.839Z,0
2019-01-27T00:41:26.821Z,0
2019-01-27T00:41:58.789Z,0
2019-01-27T00:42:30.766Z,0
2019-01-27T00:43:02.760Z,0
2019-01-27T00:43:34.729Z,0
2019-01-27T00:44:06.707Z,0
2019-01-27T00:44:38.691Z,0
2019-01-27T00:45:10.670Z,0
2019-01-27T00:45:42.660Z,0
2019-01-27T00:46:14.655Z,0
2019-01-27T00:46:46.640Z,0
2019-01-27T00:47:18.621Z,0
2019-01-27T00:47:50.603Z,0
2019-01-27T00:48:22.588Z,0
2019-01-27T00:48:54.552Z,0
2019-01-27T00:49:26.542Z,0
2019-01-27T00:49:58.515Z,0
2019-01-27T00:50:30.507Z,0
2019-01-27T00:51:02.481Z,0
2019-01-27T00:51:34.446Z,0
2019-01-27T00:52:06.435Z,0
2019-01-27T00:52:38.434Z,0
2019-01-27T00:53:10.412Z,0
2019-01-27T00:53:42.389Z,0
2019-01-27T00:54:14.394Z,0
2019-01-27T00:54:46.352Z,0
2019-01-27T00:55:18.326Z,0
2019-01-27T00:55:50.307Z,0
2019-01-27T00:56:22.288Z,0
2019-01-27T00:56:54.253Z,0
2019-01-27T00:57:26.218Z,0
2019-01-27T00:57:58.233Z,0
2019-01-27T00:58:30.211Z,0
2019-01-27T00:59:02.185Z,0
2019-01-27T00:59:34.160Z,0
2019-01-27T01:00:06.149Z,0
2019-01-27T01:00:38.124Z,0
2019-01-27T01:01:10.088Z,0
2019-01-27T01:01:42.057Z,0
2019-01-27T01:02:14.041Z,0
2019-01-27T01:02:46.014Z,0
2019-01-27T01:03:17.985Z,0
2019-01-27T01:03:49.957Z,0
2019-01-27T01:04:21.920Z,0
2019-01-27T01:04:53.907Z,0
2019-01-27T01:05:25.880Z,0
2019-01-27T01:05:57.876Z,0
2019-01-27T01:06:29.869Z,0
2019-01-27T01:07:01.842Z,0
2019-01-27T01:07:33.840Z,0
2019-01-27T01:08:05.807Z,0
2019-01-27T01:08:37.802Z,0
2019-01-27T01:09:09.805Z,0
2019-01-27T01:09:41.771Z,0
2019-01-27T01:10:13.727Z,0
2019-01-27T01:10:45.700Z,0
2019-01-27T01:11:17.685Z,0
2019-01-27T01:11:49.655Z,0
2019-01-27T01:12:21.621Z,0
2019-01-27T01:12:53.637Z,0
2019-01-27T01:13:25.614Z,0
2019-01-27T01:13:57.593Z,0
2019-01-27T01:14:29.569Z,0
2019-01-27T01:15:01.547Z,0
2019-01-27T01:15:33.528Z,0
2019-01-27T01:16:05.503Z,0
2019-01-27T01:16:37.475Z,0
2019-01-27T01:17:09.474Z,0
2019-01-27T01:17:41.477Z,0
2019-01-27T01:18:13.486Z,0
2019-01-27T01:18:45.513Z,0
2019-01-27T01:19:17.507Z,0
2019-01-27T01:20:13.811Z,0
2019-01-27T01:20:45.798Z,0
2019-01-27T01:21:17.773Z,0
2019-01-27T01:21:49.774Z,0
2019-01-27T01:22:21.747Z,0
2019-01-27T01:22:53.722Z,0
2019-01-27T01:23:25.734Z,0
2019-01-27T01:23:57.716Z,0
2019-01-27T01:24:29.684Z,0
2019-01-27T01:25:01.647Z,0
2019-01-27T01:25:33.628Z,0
2019-01-27T01:26:05.608Z,0
2019-01-27T01:26:37.578Z,0
2019-01-27T01:27:09.542Z,0
2019-01-27T01:27:42.289Z,0
2019-01-27T01:28:14.267Z,0
2019-01-27T01:28:46.259Z,0
2019-01-27T01:29:18.264Z,0
2019-01-27T01:29:50.240Z,0
2019-01-27T01:30:22.204Z,0
2019-01-27T01:30:54.190Z,0
2019-01-27T01:31:26.172Z,0
2019-01-27T01:31:59.678Z,0
2019-01-27T01:32:31.663Z,0
2019-01-27T01:33:03.627Z,0
2019-01-27T01:33:35.609Z,0
2019-01-27T01:34:07.598Z,0
2019-01-27T01:34:39.577Z,0
2019-01-27T01:35:11.545Z,0
2019-01-27T01:35:43.547Z,0
2019-01-27T01:36:15.511Z,0
2019-01-27T01:36:47.480Z,0
2019-01-27T01:37:19.463Z,0
2019-01-27T01:37:51.433Z,0
2019-01-27T01:38:23.389Z,0
2019-01-27T01:38:55.371Z,0
2019-01-27T01:39:27.354Z,0
2019-01-27T01:39:59.349Z,0
2019-01-27T01:40:31.324Z,0
2019-01-27T01:41:03.328Z,0
2019-01-27T01:41:35.314Z,0
2019-01-27T01:42:07.284Z,0
2019-01-27T01:42:39.258Z,0
2019-01-27T01:43:11.231Z,0
2019-01-27T01:43:43.215Z,0
2019-01-27T01:44:15.207Z,0
2019-01-27T01:44:47.188Z,0
2019-01-27T01:45:19.162Z,0
2019-01-27T01:45:51.125Z,0
2019-01-27T01:46:23.097Z,0
2019-01-27T01:46:55.071Z,0
2019-01-27T01:47:27.040Z,0
2019-01-27T01:47:59.009Z,0
2019-01-27T01:48:30.974Z,0
2019-01-27T01:49:02.950Z,0
2019-01-27T01:49:34.920Z,0
2019-01-27T01:50:06.877Z,0
2019-01-27T01:50:38.841Z,0
2019-01-27T01:51:10.805Z,0
2019-01-27T01:51:42.769Z,0
2019-01-27T01:52:14.745Z,0
2019-01-27T01:52:46.725Z,0
2019-01-27T01:53:18.707Z,0
2019-01-27T01:53:50.670Z,0
2019-01-27T01:54:22.634Z,0
2019-01-27T01:54:54.627Z,0
2019-01-27T01:55:26.605Z,0
2019-01-27T01:55:58.576Z,0
2019-01-27T01:56:30.546Z,0
2019-01-27T01:57:02.520Z,0
2019-01-27T01:57:34.481Z,0
2019-01-27T01:58:06.481Z,0
2019-01-27T01:58:38.456Z,0
2019-01-27T01:59:10.429Z,0
2019-01-27T01:59:42.422Z,0
2019-01-27T02:00:14.404Z,0
2019-01-27T02:00:46.392Z,0
2019-01-27T02:01:18.396Z,0
2019-01-27T02:01:50.364Z,0
2019-01-27T02:02:22.333Z,0
2019-01-27T02:02:54.314Z,0
2019-01-27T02:03:26.295Z,0
2019-01-27T02:03:58.258Z,0
2019-01-27T02:04:30.238Z,0
2019-01-27T02:05:02.210Z,0
2019-01-27T02:05:34.180Z,0
2019-01-27T02:06:06.167Z,0
2019-01-27T02:06:38.162Z,0
2019-01-27T02:07:10.144Z,0
2019-01-27T02:07:42.127Z,0
2019-01-27T02:08:14.160Z,0
2019-01-27T02:08:46.139Z,0
2019-01-27T02:09:18.114Z,0
2019-01-27T02:09:50.083Z,0
2019-01-27T02:10:22.054Z,0
2019-01-27T02:10:54.015Z,0
2019-01-27T02:11:26.009Z,0
2019-01-27T02:11:57.993Z,0
2019-01-27T02:12:29.958Z,0
2019-01-27T02:13:01.918Z,0
2019-01-27T02:13:33.900Z,0
2019-01-27T02:14:05.889Z,0
2019-01-27T02:14:37.877Z,0
2019-01-27T02:15:09.860Z,0
2019-01-27T02:15:41.825Z,0
2019-01-27T02:16:13.797Z,0
2019-01-27T02:16:45.779Z,0
2019-01-27T02:17:17.988Z,0
2019-01-27T02:17:50.074Z,0
2019-01-27T02:18:22.047Z,0
2019-01-27T02:18:54.015Z,0
2019-01-27T02:19:25.986Z,0
2019-01-27T02:19:57.975Z,0
2019-01-27T02:20:30.003Z,0
2019-01-27T02:21:01.998Z,0
2019-01-27T02:21:33.996Z,0
2019-01-27T02:22:05.959Z,0
2019-01-27T02:22:37.954Z,0
2019-01-27T02:23:09.937Z,0
2019-01-27T02:23:41.916Z,0
2019-01-27T02:24:13.909Z,0
2019-01-27T02:24:45.897Z,0
2019-01-27T02:25:17.852Z,0
2019-01-27T02:25:49.834Z,0
2019-01-27T02:26:21.796Z,0
2019-01-27T02:26:53.761Z,0
2019-01-27T02:27:25.749Z,0
2019-01-27T02:27:57.731Z,0
2019-01-27T02:28:29.708Z,0
2019-01-27T02:29:01.685Z,0
2019-01-27T02:29:33.664Z,0
2019-01-27T02:30:05.641Z,0
2019-01-27T02:30:37.603Z,0
2019-01-27T02:31:09.581Z,0
2019-01-27T02:31:41.573Z,0
2019-01-27T02:32:13.570Z,0
2019-01-27T02:32:45.554Z,0
2019-01-27T02:33:17.555Z,0
2019-01-27T02:33:49.537Z,0
2019-01-27T02:34:21.539Z,0
2019-01-27T02:34:53.521Z,0
2019-01-27T02:35:25.495Z,0
2019-01-27T02:35:57.460Z,0
2019-01-27T02:36:29.448Z,0
2019-01-27T02:37:01.434Z,0
2019-01-27T02:37:33.406Z,0
2019-01-27T02:38:05.368Z,0
2019-01-27T02:38:37.361Z,0
2019-01-27T02:39:09.343Z,0
2019-01-27T02:39:41.351Z,0
2019-01-27T02:40:13.326Z,0
2019-01-27T02:40:45.370Z,0
2019-01-27T02:41:17.332Z,0
2019-01-27T02:41:49.345Z,0
2019-01-27T02:42:21.324Z,0
2019-01-27T02:42:53.295Z,0
2019-01-27T02:43:25.324Z,0
2019-01-27T02:43:57.307Z,0
2019-01-27T02:44:29.295Z,0
2019-01-27T02:45:01.326Z,0
2019-01-27T02:45:33.308Z,0
2019-01-27T02:46:05.276Z,0
2019-01-27T02:46:37.247Z,0
2019-01-27T02:47:09.235Z,0
2019-01-27T02:47:41.211Z,0
2019-01-27T02:48:13.233Z,0
2019-01-27T02:48:45.212Z,0
2019-01-27T02:49:17.180Z,0
2019-01-27T02:49:49.202Z,0
2019-01-27T02:50:21.188Z,0
2019-01-27T02:50:53.175Z,0
2019-01-27T02:51:25.152Z,0
2019-01-27T02:51:57.148Z,0
2019-01-27T02:52:29.128Z,0
2019-01-27T02:53:01.108Z,0
2019-01-27T02:53:33.086Z,0
2019-01-27T02:54:05.076Z,0
2019-01-27T02:54:37.044Z,0
2019-01-27T02:55:09.021Z,0
2019-01-27T02:55:41.014Z,0
2019-01-27T02:56:12.992Z,0
2019-01-27T02:56:44.962Z,0
2019-01-27T02:57:16.944Z,0
2019-01-27T02:57:48.937Z,0
2019-01-27T02:58:20.898Z,0
2019-01-27T02:58:52.880Z,0
2019-01-27T02:59:24.920Z,0
2019-01-27T02:59:56.920Z,0
2019-01-27T03:00:28.895Z,0
2019-01-27T03:01:00.879Z,0
2019-01-27T03:01:32.838Z,0
2019-01-27T03:02:04.809Z,0
2019-01-27T03:02:36.791Z,0
2019-01-27T03:03:08.767Z,0
2019-01-27T03:03:40.759Z,0
2019-01-27T03:04:12.750Z,0
2019-01-27T03:04:44.724Z,0
2019-01-27T03:05:16.711Z,0
2019-01-27T03:05:48.682Z,0
2019-01-27T03:06:20.648Z,0
2019-01-27T03:06:52.625Z,0
2019-01-27T03:07:24.623Z,0
2019-01-27T03:07:56.603Z,0
2019-01-27T03:08:28.602Z,0
2019-01-27T03:09:00.570Z,0
2019-01-27T03:09:32.552Z,0
2019-01-27T03:10:04.496Z,0
2019-01-27T03:10:36.505Z,0
2019-01-27T03:11:08.489Z,0
2019-01-27T03:11:40.458Z,0
2019-01-27T03:12:12.432Z,0
2019-01-27T03:12:44.433Z,0
2019-01-27T03:13:16.412Z,0
2019-01-27T03:13:48.460Z,0
2019-01-27T03:14:20.454Z,0
2019-01-27T03:14:52.427Z,0
2019-01-27T03:15:24.405Z,0
2019-01-27T03:15:56.373Z,0
2019-01-27T03:16:28.352Z,0
2019-01-27T03:17:00.352Z,0
2019-01-27T03:17:32.345Z,0
2019-01-27T03:18:04.314Z,0
2019-01-27T03:18:36.335Z,0
2019-01-27T03:19:08.342Z,0
2019-01-27T03:19:40.846Z,0
2019-01-27T03:20:12.855Z,0
2019-01-27T03:20:44.848Z,0
2019-01-27T03:21:16.827Z,0
2019-01-27T03:21:48.804Z,0
2019-01-27T03:22:20.788Z,0
2019-01-27T03:22:52.771Z,0
2019-01-27T03:23:24.761Z,0
2019-01-27T03:23:56.721Z,0
2019-01-27T03:24:28.729Z,0
2019-01-27T03:25:00.695Z,0
2019-01-27T03:25:32.653Z,0
2019-01-27T03:26:04.621Z,0
2019-01-27T03:26:36.602Z,0
2019-01-27T03:27:08.574Z,0
2019-01-27T03:27:40.540Z,0
2019-01-27T03:28:12.532Z,0
2019-01-27T03:28:44.520Z,0
2019-01-27T03:29:16.496Z,0
2019-01-27T03:29:48.459Z,0
2019-01-27T03:30:20.472Z,0
2019-01-27T03:30:52.496Z,0
2019-01-27T03:31:24.525Z,0
2019-01-27T03:31:56.708Z,0
2019-01-27T03:32:28.735Z,0
2019-01-27T03:33:00.757Z,0
2019-01-27T03:33:32.742Z,0
2019-01-27T03:34:04.724Z,0
2019-01-27T03:34:36.704Z,0
2019-01-27T03:35:08.680Z,0
2019-01-27T03:35:40.654Z,0
2019-01-27T03:36:12.607Z,0
2019-01-27T03:36:44.637Z,0
2019-01-27T03:37:16.638Z,0
2019-01-27T03:37:48.649Z,0
2019-01-27T03:38:20.634Z,0
2019-01-27T03:38:52.622Z,0
2019-01-27T03:39:24.594Z,0
2019-01-27T03:39:56.588Z,0
2019-01-27T03:40:28.566Z,0
2019-01-27T03:41:00.548Z,0
2019-01-27T03:41:32.532Z,0
2019-01-27T03:42:04.511Z,0
2019-01-27T03:42:36.488Z,0
2019-01-27T03:43:08.472Z,0
2019-01-27T03:43:40.487Z,0
2019-01-27T03:44:12.459Z,0
2019-01-27T03:44:44.431Z,0
2019-01-27T03:45:16.441Z,0
2019-01-27T03:45:48.433Z,0
2019-01-27T03:46:20.405Z,0
2019-01-27T03:46:52.375Z,0
2019-01-27T03:47:24.340Z,0
2019-01-27T03:47:56.309Z,0
2019-01-27T03:48:28.284Z,0
2019-01-27T03:49:00.250Z,0
2019-01-27T03:49:32.228Z,0
2019-01-27T03:50:04.194Z,0
2019-01-27T03:50:36.169Z,0
2019-01-27T03:51:08.134Z,0
2019-01-27T03:51:40.118Z,0
2019-01-27T03:52:12.106Z,0
2019-01-27T03:52:44.069Z,0
2019-01-27T03:53:16.049Z,0
2019-01-27T03:53:48.013Z,0
2019-01-27T03:54:19.982Z,0
2019-01-27T03:54:51.974Z,0
2019-01-27T03:55:23.944Z,0
2019-01-27T03:55:55.915Z,0
2019-01-27T03:56:27.915Z,0
2019-01-27T03:56:59.882Z,0
2019-01-27T03:57:31.846Z,0
2019-01-27T03:58:04.678Z,0
2019-01-27T03:58:36.657Z,0
2019-01-27T03:59:08.638Z,0
2019-01-27T03:59:40.606Z,0
2019-01-27T04:00:12.582Z,0
2019-01-27T04:00:44.536Z,0
2019-01-27T04:01:16.524Z,0
2019-01-27T04:01:48.526Z,0
2019-01-27T04:02:20.519Z,0
2019-01-27T04:02:52.527Z,0
2019-01-27T04:03:24.533Z,0
2019-01-27T04:03:56.497Z,0
2019-01-27T04:04:28.483Z,0
2019-01-27T04:05:00.627Z,0
2019-01-27T04:05:32.622Z,0
2019-01-27T04:06:04.589Z,0
2019-01-27T04:06:36.572Z,0
2019-01-27T04:07:08.573Z,0
2019-01-27T04:07:40.557Z,0
2019-01-27T04:08:12.588Z,0
2019-01-27T04:08:44.590Z,0
2019-01-27T04:09:16.569Z,0
2019-01-27T04:09:48.565Z,0
2019-01-27T04:10:20.570Z,0
2019-01-27T04:10:52.574Z,0
2019-01-27T04:11:24.576Z,0
2019-01-27T04:11:56.569Z,0
2019-01-27T04:12:28.582Z,0
2019-01-27T04:13:00.553Z,0
2019-01-27T04:13:32.534Z,0
2019-01-27T04:14:04.516Z,0
2019-01-27T04:14:36.543Z,0
2019-01-27T04:15:08.533Z,0
2019-01-27T04:15:40.531Z,0
2019-01-27T04:16:12.511Z,0
2019-01-27T04:16:44.500Z,0
2019-01-27T04:17:16.491Z,0
2019-01-27T04:17:48.475Z,0
2019-01-27T04:18:20.469Z,0
2019-01-27T04:18:52.453Z,0
2019-01-27T04:19:24.441Z,0
2019-01-27T04:19:56.442Z,0
2019-01-27T04:20:28.425Z,0
2019-01-27T04:21:00.406Z,0
2019-01-27T04:21:32.375Z,0
2019-01-27T04:22:04.371Z,0
2019-01-27T04:22:36.391Z,0
2019-01-27T04:23:08.399Z,0
2019-01-27T04:23:40.413Z,0
2019-01-27T04:24:12.377Z,0
2019-01-27T04:24:44.346Z,0
2019-01-27T04:25:16.348Z,0
2019-01-27T04:25:48.330Z,0
2019-01-27T04:26:20.302Z,0
2019-01-27T04:26:52.257Z,0
2019-01-27T04:27:24.228Z,0
2019-01-27T04:27:56.241Z,0
2019-01-27T04:28:28.222Z,0
2019-01-27T04:29:00.203Z,0
2019-01-27T04:29:32.181Z,0
2019-01-27T04:30:04.161Z,0
2019-01-27T04:30:36.160Z,0
2019-01-27T04:31:08.183Z,0
2019-01-27T04:31:40.174Z,0
2019-01-27T04:32:12.180Z,0
2019-01-27T04:32:44.175Z,0
2019-01-27T04:33:16.163Z,0
2019-01-27T04:33:48.154Z,0
2019-01-27T04:34:20.118Z,0
2019-01-27T04:34:52.085Z,0
2019-01-27T04:35:24.066Z,0
2019-01-27T04:35:56.041Z,0
2019-01-27T04:36:28.021Z,0
2019-01-27T04:37:00.008Z,0
2019-01-27T04:37:31.990Z,0
2019-01-27T04:38:03.964Z,0
2019-01-27T04:38:35.957Z,0
2019-01-27T04:39:07.941Z,0
2019-01-27T04:39:39.926Z,0
2019-01-27T04:40:11.898Z,0
2019-01-27T04:40:43.854Z,0
2019-01-27T04:41:15.845Z,0
2019-01-27T04:41:47.839Z,0
2019-01-27T04:42:19.789Z,0
2019-01-27T04:42:51.763Z,0
2019-01-27T04:43:23.739Z,0
2019-01-27T04:43:57.718Z,0
2019-01-27T04:44:29.697Z,0
2019-01-27T04:45:01.681Z,0
2019-01-27T04:45:33.666Z,0
2019-01-27T04:46:05.650Z,0
2019-01-27T04:46:37.653Z,0
2019-01-27T04:47:09.643Z,0
2019-01-27T04:47:41.625Z,0
2019-01-27T04:48:13.616Z,0
2019-01-27T04:48:45.603Z,0
2019-01-27T04:49:17.600Z,0
2019-01-27T04:49:49.578Z,0
2019-01-27T04:50:21.553Z,0
2019-01-27T04:50:53.526Z,0
2019-01-27T04:51:25.522Z,0
2019-01-27T04:51:57.504Z,0
2019-01-27T04:52:29.468Z,0
2019-01-27T04:53:01.465Z,0
2019-01-27T04:53:33.428Z,0
2019-01-27T04:54:05.415Z,0
2019-01-27T04:54:37.395Z,0
2019-01-27T04:55:09.395Z,0
2019-01-27T04:55:41.377Z,0
2019-01-27T04:56:13.369Z,0
2019-01-27T04:56:45.352Z,0
2019-01-27T04:57:17.317Z,0
2019-01-27T04:57:49.292Z,0
2019-01-27T04:58:21.271Z,0
2019-01-27T04:58:53.259Z,0
2019-01-27T04:59:25.223Z,0
2019-01-27T04:59:57.202Z,0
2019-01-27T05:00:29.192Z,0
2019-01-27T05:01:01.171Z,0
2019-01-27T05:01:33.149Z,0
2019-01-27T05:02:05.127Z,0
2019-01-27T05:02:37.105Z,0
2019-01-27T05:03:09.079Z,0
2019-01-27T05:03:41.069Z,0
2019-01-27T05:04:13.021Z,0
2019-01-27T05:04:44.998Z,0
2019-01-27T05:05:16.967Z,0
2019-01-27T05:05:48.962Z,0
2019-01-27T05:06:20.957Z,0
2019-01-27T05:06:52.928Z,0
2019-01-27T05:07:24.919Z,0
2019-01-27T05:07:56.901Z,0
2019-01-27T05:08:28.908Z,0
2019-01-27T05:09:00.885Z,0
2019-01-27T05:09:32.866Z,0
2019-01-27T05:10:04.849Z,0
2019-01-27T05:10:36.826Z,0
2019-01-27T05:11:08.830Z,0
2019-01-27T05:11:40.809Z,0
2019-01-27T05:12:12.790Z,0
2019-01-27T05:12:44.766Z,0
2019-01-27T05:13:16.765Z,0
2019-01-27T05:13:48.753Z,0
2019-01-27T05:14:20.744Z,0
2019-01-27T05:14:52.716Z,0
2019-01-27T05:15:24.700Z,0
2019-01-27T05:15:56.694Z,0
2019-01-27T05:16:28.680Z,0
2019-01-27T05:17:00.661Z,0
2019-01-27T05:17:32.660Z,0
2019-01-27T05:18:04.632Z,0
2019-01-27T05:18:36.595Z,0
2019-01-27T05:19:08.572Z,0
2019-01-27T05:19:40.597Z,0
2019-01-27T05:20:12.575Z,0
2019-01-27T05:20:44.549Z,0
2019-01-27T05:21:16.516Z,0
2019-01-27T05:21:48.518Z,0
2019-01-27T05:22:20.500Z,0
2019-01-27T05:22:52.478Z,0
2019-01-27T05:23:24.468Z,0
2019-01-27T05:23:56.456Z,0
2019-01-27T05:24:28.432Z,0
2019-01-27T05:25:00.589Z,0
2019-01-27T05:25:32.574Z,0
2019-01-27T05:26:04.574Z,0
2019-01-27T05:26:36.637Z,0
2019-01-27T05:27:08.617Z,0
2019-01-27T05:27:40.597Z,0
2019-01-27T05:28:12.583Z,0
2019-01-27T05:28:44.563Z,0
2019-01-27T05:29:16.539Z,0
2019-01-27T05:29:48.539Z,0
2019-01-27T05:30:20.528Z,0
2019-01-27T05:30:52.511Z,0
2019-01-27T05:31:24.478Z,0
2019-01-27T05:31:56.465Z,0
2019-01-27T05:32:28.440Z,0
2019-01-27T05:33:00.432Z,0
2019-01-27T05:33:32.422Z,0
2019-01-27T05:34:04.426Z,0
2019-01-27T05:34:36.432Z,0
2019-01-27T05:35:08.404Z,0
2019-01-27T05:35:40.354Z,0
2019-01-27T05:36:12.338Z,0
2019-01-27T05:36:44.297Z,0
2019-01-27T05:37:16.264Z,0
2019-01-27T05:37:48.237Z,0
2019-01-27T05:38:20.210Z,0
2019-01-27T05:38:52.201Z,0
2019-01-27T05:39:24.168Z,0
2019-01-27T05:39:56.151Z,0
2019-01-27T05:40:28.186Z,0
2019-01-27T05:41:00.155Z,0
2019-01-27T05:41:32.134Z,0
2019-01-27T05:42:28.753Z,0
2019-01-27T05:43:00.740Z,0
2019-01-27T05:43:32.711Z,0
2019-01-27T05:44:04.693Z,0
2019-01-27T05:44:36.711Z,0
2019-01-27T05:45:08.720Z,0
2019-01-27T05:45:40.687Z,0
2019-01-27T05:46:12.670Z,0
2019-01-27T05:46:44.641Z,0
2019-01-27T05:47:16.620Z,0
2019-01-27T05:47:48.640Z,0
2019-01-27T05:48:20.629Z,0
2019-01-27T05:48:52.603Z,0
2019-01-27T05:49:24.599Z,0
2019-01-27T05:49:56.579Z,0
2019-01-27T05:50:28.542Z,0
2019-01-27T05:51:00.517Z,0
2019-01-27T05:51:32.499Z,0
2019-01-27T05:52:04.484Z,0
2019-01-27T05:52:36.476Z,0
2019-01-27T05:53:08.459Z,0
2019-01-27T05:53:40.428Z,0
2019-01-27T05:54:12.471Z,0
2019-01-27T05:54:44.426Z,0
2019-01-27T05:55:16.499Z,0
2019-01-27T05:55:48.482Z,0
2019-01-27T05:56:20.469Z,0
2019-01-27T05:56:57.766Z,0
2019-01-27T05:57:29.721Z,0
2019-01-27T05:58:01.690Z,0
2019-01-27T05:58:33.675Z,0
2019-01-27T05:59:05.685Z,0
2019-01-27T05:59:37.658Z,0
2019-01-27T06:00:09.623Z,0
2019-01-27T06:00:41.650Z,0
2019-01-27T06:01:13.627Z,0
2019-01-27T06:01:45.646Z,0
2019-01-27T06:02:17.610Z,0
2019-01-27T06:02:49.568Z,0
2019-01-27T06:03:21.546Z,0
2019-01-27T06:03:53.542Z,0
2019-01-27T06:04:25.507Z,0
2019-01-27T06:04:57.514Z,0
2019-01-27T06:05:29.483Z,0
2019-01-27T06:06:01.443Z,0
2019-01-27T06:06:33.415Z,0
2019-01-27T06:07:05.393Z,0
2019-01-27T06:07:37.353Z,0
2019-01-27T06:08:09.327Z,0
2019-01-27T06:08:41.314Z,0
2019-01-27T06:09:13.281Z,0
2019-01-27T06:09:45.251Z,0
2019-01-27T06:10:17.234Z,0
2019-01-27T06:10:49.260Z,0
2019-01-27T06:11:21.234Z,0
2019-01-27T06:11:52.994Z,0
2019-01-27T06:12:24.979Z,0
2019-01-27T06:12:56.952Z,0
2019-01-27T06:13:28.694Z,0
2019-01-27T06:14:00.678Z,0
2019-01-27T06:14:32.650Z,0
2019-01-27T06:15:04.644Z,0
2019-01-27T06:15:36.605Z,0
2019-01-27T06:16:08.600Z,0
2019-01-27T06:16:40.601Z,0
2019-01-27T06:17:12.622Z,0
2019-01-27T06:17:44.609Z,0
2019-01-27T06:18:16.611Z,0
2019-01-27T06:18:48.643Z,0
2019-01-27T06:19:20.635Z,0
2019-01-27T06:19:52.615Z,0
2019-01-27T06:20:24.616Z,0
2019-01-27T06:20:56.588Z,0
2019-01-27T06:21:28.569Z,0
2019-01-27T06:22:00.536Z,0
2019-01-27T06:22:32.498Z,0
2019-01-27T06:23:04.485Z,0
2019-01-27T06:23:36.465Z,0
2019-01-27T06:24:08.454Z,0
2019-01-27T06:24:40.449Z,0
2019-01-27T06:25:12.453Z,0
2019-01-27T06:25:44.477Z,0
2019-01-27T06:26:16.469Z,0
2019-01-27T06:26:48.508Z,0
2019-01-27T06:27:20.476Z,0
2019-01-27T06:27:52.446Z,0
2019-01-27T06:28:24.410Z,0
2019-01-27T06:28:56.389Z,0
2019-01-27T06:29:28.430Z,0
2019-01-27T06:30:00.409Z,0
2019-01-27T06:30:32.387Z,0
2019-01-27T06:31:04.363Z,0
2019-01-27T06:31:36.387Z,0
2019-01-27T06:32:09.274Z,0
2019-01-27T06:32:41.247Z,0
2019-01-27T06:33:13.221Z,0
2019-01-27T06:33:45.205Z,0
2019-01-27T06:34:17.168Z,0
2019-01-27T06:34:49.153Z,0
2019-01-27T06:35:21.121Z,0
2019-01-27T06:35:53.095Z,0
2019-01-27T06:36:25.083Z,0
2019-01-27T06:36:57.069Z,0
2019-01-27T06:37:29.077Z,0
2019-01-27T06:38:01.067Z,0
2019-01-27T06:38:33.038Z,0
2019-01-27T06:39:05.016Z,0
2019-01-27T06:39:36.994Z,0
2019-01-27T06:40:08.958Z,0
2019-01-27T06:40:40.932Z,0
2019-01-27T06:41:12.912Z,0
2019-01-27T06:41:44.885Z,0
2019-01-27T06:42:16.864Z,0
2019-01-27T06:42:48.829Z,0
2019-01-27T06:43:20.807Z,0
2019-01-27T06:43:52.791Z,0
2019-01-27T06:44:24.757Z,0
2019-01-27T06:44:56.722Z,0
2019-01-27T06:45:28.696Z,0
2019-01-27T06:46:00.666Z,0
2019-01-27T06:46:32.651Z,0
2019-01-27T06:47:04.624Z,0
2019-01-27T06:47:36.590Z,0
2019-01-27T06:48:08.588Z,0
2019-01-27T06:48:40.566Z,0
2019-01-27T06:49:12.594Z,0
2019-01-27T06:49:44.581Z,0
2019-01-27T06:50:16.554Z,0
2019-01-27T06:50:48.543Z,0
2019-01-27T06:51:20.556Z,0
2019-01-27T06:51:52.526Z,0
2019-01-27T06:52:24.519Z,0
2019-01-27T06:52:56.492Z,0
2019-01-27T06:53:28.463Z,0
2019-01-27T06:54:00.439Z,0
2019-01-27T06:54:32.416Z,4
2019-01-27T06:55:04.387Z,4
2019-01-27T06:55:36.346Z,4
2019-01-27T06:56:08.313Z,4
2019-01-27T06:56:40.295Z,4
2019-01-27T06:57:12.285Z,4
2019-01-27T06:57:44.273Z,4
2019-01-27T06:58:16.280Z,4
2019-01-27T06:58:48.294Z,4
2019-01-27T06:59:20.510Z,4
2019-01-27T06:59:52.507Z,4
2019-01-27T07:00:24.493Z,0
2019-01-27T07:00:56.461Z,4
2019-01-27T07:01:28.434Z,4
2019-01-27T07:02:00.405Z,4
2019-01-27T07:02:32.402Z,4
2019-01-27T07:03:04.398Z,8
2019-01-27T07:03:36.378Z,8
2019-01-27T07:04:08.371Z,8
2019-01-27T07:04:40.394Z,8
2019-01-27T07:05:12.383Z,8
2019-01-27T07:05:44.366Z,12
2019-01-27T07:06:16.351Z,12
2019-01-27T07:06:48.343Z,12
2019-01-27T07:07:20.309Z,12
2019-01-27T07:07:52.301Z,12
2019-01-27T07:08:24.277Z,12
2019-01-27T07:08:56.244Z,12
2019-01-27T07:09:28.242Z,12
2019-01-27T07:10:00.252Z,16
2019-01-27T07:10:32.218Z,16
2019-01-27T07:11:04.205Z,16
2019-01-27T07:11:36.169Z,12
2019-01-27T07:12:08.159Z,12
2019-01-27T07:12:40.120Z,12
2019-01-27T07:13:12.085Z,16
2019-01-27T07:13:44.054Z,16
2019-01-27T07:14:16.033Z,20
2019-01-27T07:14:48.015Z,20
2019-01-27T07:15:19.983Z,24
2019-01-27T07:15:51.970Z,28
2019-01-27T07:16:23.936Z,32
2019-01-27T07:16:55.913Z,36
2019-01-27T07:17:27.884Z,36
2019-01-27T07:17:59.883Z,36
2019-01-27T07:18:31.859Z,40
2019-01-27T07:19:03.837Z,40
2019-01-27T07:19:35.861Z,48
2019-01-27T07:20:07.865Z,48
2019-01-27T07:20:39.868Z,56
2019-01-27T07:21:11.854Z,60
2019-01-27T07:21:43.836Z,64
2019-01-27T07:22:15.819Z,68
2019-01-27T07:22:47.820Z,64
2019-01-27T07:23:19.768Z,68
2019-01-27T07:23:51.741Z,72
2019-01-27T07:24:23.729Z,76
2019-01-27T07:24:55.699Z,76
2019-01-27T07:25:27.678Z,68
2019-01-27T07:25:59.682Z,64
2019-01-27T07:26:32.180Z,72
2019-01-27T07:27:04.160Z,72
2019-01-27T07:27:36.138Z,68
2019-01-27T07:28:08.104Z,68
2019-01-27T07:28:40.091Z,72
2019-01-27T07:29:12.073Z,72
2019-01-27T07:29:44.042Z,72
2019-01-27T07:30:15.993Z,72
2019-01-27T07:30:47.968Z,76
2019-01-27T07:31:19.944Z,80
2019-01-27T07:31:51.934Z,80
2019-01-27T07:32:23.949Z,76
2019-01-27T07:32:55.924Z,72
2019-01-27T07:33:27.903Z,76
2019-01-27T07:33:59.874Z,76
2019-01-27T07:34:31.870Z,76
2019-01-27T07:35:03.849Z,72
2019-01-27T07:35:35.856Z,76
2019-01-27T07:36:07.846Z,76
2019-01-27T07:36:39.815Z,80
2019-01-27T07:37:11.780Z,84
2019-01-27T07:37:43.739Z,84
2019-01-27T07:38:15.706Z,92
2019-01-27T07:38:47.682Z,104
2019-01-27T07:39:19.652Z,112
2019-01-27T07:39:51.638Z,116
2019-01-27T07:40:23.612Z,124
2019-01-27T07:40:55.593Z,132
2019-01-27T07:41:27.556Z,144
2019-01-27T07:41:59.544Z,144
2019-01-27T07:42:31.500Z,152
2019-01-27T07:43:03.514Z,164
2019-01-27T07:43:35.473Z,180
2019-01-27T07:44:07.442Z,204
2019-01-27T07:44:39.413Z,236
2019-01-27T07:45:11.387Z,252
2019-01-27T07:45:43.366Z,256
2019-01-27T07:46:15.336Z,260
2019-01-27T07:46:47.316Z,268
2019-01-27T07:47:19.283Z,276
2019-01-27T07:47:51.249Z,276
2019-01-27T07:48:23.242Z,284
2019-01-27T07:48:55.217Z,284
2019-01-27T07:49:27.247Z,288
2019-01-27T07:49:59.210Z,292
2019-01-27T07:50:31.175Z,288
2019-01-27T07:51:03.141Z,272
2019-01-27T07:51:35.124Z,248
2019-01-27T07:52:07.088Z,232